Lombardy, Mississippi
Current Conditions -  °F | °C
As of 1:15 AM on Wednesday 22 Oct 2014 (Local Time) from KRNV Reporting Station
Haze Haze  
Wind Chill: 56°   Ceiling: Unl
Heat Index: 56°   Visibility: 2mi
Dew Point: 51°   Wind: 3mph
Humidity: 85%   Direction: 30°NNE
Pressure: 30.08"   Gusts: NA
Location:  33.976°N, 90.7349°W
Report Text: KRNV 220615Z AUTO 03003KT 2SM HZ CLR 13/11 A3008 RMK AO2 T01320107
Loading
Personal Weather Stations






























Interactive Weather Map
Tropical Storm Tracking
New forecast layout! Learn more

10-Day Weather Forecast

Advertisements
Track Severe Weather on mobile